createdAt,value
2023-03-28T00:00:41.477Z,5.67
2023-03-28T00:03:09.423Z,6.33
2023-03-28T00:05:41.134Z,7.20
2023-03-28T00:08:11.910Z,5.53
2023-03-28T00:10:39.689Z,5.07
2023-03-28T00:13:07.795Z,5.00
2023-03-28T00:15:40.152Z,5.37
2023-03-28T00:18:11.494Z,4.97
2023-03-28T00:20:40.050Z,7.17
2023-03-28T00:23:09.537Z,4.77
2023-03-28T00:25:41.680Z,5.17
2023-03-28T00:28:09.959Z,6.00
2023-03-28T00:30:37.995Z,7.03
2023-03-28T00:33:06.230Z,5.10
2023-03-28T00:35:34.412Z,4.80
2023-03-28T00:38:03.324Z,6.23
2023-03-28T00:40:38.739Z,6.13
2023-03-28T00:43:06.615Z,5.43
2023-03-28T00:45:34.809Z,4.70
2023-03-28T00:48:14.274Z,5.43
2023-03-28T00:50:48.638Z,6.43
2023-03-28T00:53:19.783Z,6.37
2023-03-28T00:55:52.322Z,6.63
2023-03-28T00:58:25.173Z,5.93
2023-03-28T01:00:54.811Z,9.97
2023-03-28T01:03:27.680Z,6.80
2023-03-28T01:05:56.612Z,7.73
2023-03-28T01:08:27.190Z,6.63
2023-03-28T01:10:56.353Z,6.70
2023-03-28T01:13:28.905Z,5.93
2023-03-28T01:15:57.194Z,8.37
2023-03-28T01:18:25.488Z,5.57
2023-03-28T01:21:10.369Z,5.80
2023-03-28T01:24:11.877Z,8.47
2023-03-28T01:26:53.417Z,8.77
2023-03-28T01:30:02.395Z,6.73
2023-03-28T01:33:11.188Z,7.90
2023-03-28T01:36:07.123Z,8.30
2023-03-28T01:38:40.780Z,9.00
2023-03-28T01:41:15.304Z,7.90
2023-03-28T01:43:52.431Z,6.57
2023-03-28T01:46:23.994Z,6.87
2023-03-28T01:49:00.827Z,8.07
2023-03-28T01:51:37.506Z,8.10
2023-03-28T01:54:14.571Z,7.17
2023-03-28T01:56:50.379Z,6.73
2023-03-28T01:59:22.486Z,6.63
2023-03-28T02:01:55.110Z,9.13
2023-03-28T02:04:26.602Z,8.10
2023-03-28T02:06:56.897Z,6.00
2023-03-28T02:09:27.655Z,8.37
2023-03-28T02:12:00.655Z,10.40
2023-03-28T02:14:32.224Z,6.97
2023-03-28T02:17:04.599Z,8.17
2023-03-28T02:19:37.831Z,8.03
2023-03-28T02:22:12.318Z,8.40
2023-03-28T02:24:41.502Z,8.33
2023-03-28T02:27:09.432Z,8.60
2023-03-28T02:29:40.620Z,9.33
2023-03-28T02:32:08.542Z,11.03
2023-03-28T02:34:36.786Z,7.57
2023-03-28T02:37:16.104Z,10.83
2023-03-28T02:39:53.312Z,7.63
2023-03-28T02:42:47.784Z,7.27
2023-03-28T02:45:30.272Z,8.83
2023-03-28T02:48:08.892Z,8.47
2023-03-28T02:50:43.401Z,10.33
2023-03-28T02:53:15.725Z,8.10
2023-03-28T02:55:54.392Z,8.47
2023-03-28T02:58:27.509Z,12.07
2023-03-28T03:00:55.500Z,10.87
2023-03-28T03:03:25.869Z,8.13
2023-03-28T03:05:53.757Z,8.57
2023-03-28T03:08:21.594Z,12.43
2023-03-28T03:10:50.793Z,10.43
2023-03-28T03:13:18.592Z,9.20
2023-03-28T03:15:46.509Z,13.87
2023-03-28T03:18:14.367Z,12.63
2023-03-28T03:20:45.745Z,8.80
2023-03-28T03:23:14.532Z,10.23
2023-03-28T03:25:43.178Z,8.90
2023-03-28T03:28:12.953Z,9.93
2023-03-28T03:30:40.873Z,7.97
2023-03-28T03:33:10.376Z,8.87
2023-03-28T03:35:38.561Z,9.63
2023-03-28T03:38:06.871Z,9.47
2023-03-28T03:40:34.736Z,10.27
2023-03-28T03:43:02.571Z,7.80
2023-03-28T03:45:31.822Z,11.17
2023-03-28T03:47:59.647Z,10.27
2023-03-28T03:50:27.513Z,10.53
2023-03-28T03:52:55.390Z,12.17
2023-03-28T03:55:23.213Z,8.07
2023-03-28T03:57:51.036Z,9.03
2023-03-28T04:00:19.849Z,9.47
2023-03-28T04:02:49.641Z,11.70
2023-03-28T04:05:17.600Z,11.90
2023-03-28T04:07:45.392Z,10.67
2023-03-28T04:10:13.221Z,10.03
2023-03-28T04:12:41.036Z,11.80
2023-03-28T04:15:09.990Z,12.50
2023-03-28T04:17:37.913Z,25.67
2023-03-28T04:20:12.327Z,34.37
2023-03-28T04:22:46.224Z,20.93
2023-03-28T04:25:14.749Z,12.93
2023-03-28T04:27:47.120Z,13.13
2023-03-28T04:30:18.012Z,10.23
2023-03-28T04:32:49.468Z,9.80
2023-03-28T04:35:18.961Z,8.80
2023-03-28T04:37:47.436Z,13.13
2023-03-28T04:40:17.735Z,15.90
2023-03-28T04:42:45.852Z,18.13
2023-03-28T04:45:15.034Z,15.53
2023-03-28T04:47:44.446Z,15.57
2023-03-28T04:50:13.583Z,16.50
2023-03-28T04:52:42.740Z,13.43
2023-03-28T04:55:11.184Z,11.63
2023-03-28T04:57:39.000Z,10.20
2023-03-28T05:00:10.419Z,12.70
2023-03-28T05:02:38.422Z,11.00
2023-03-28T05:05:07.790Z,12.27
2023-03-28T05:07:36.724Z,13.30
2023-03-28T05:10:07.582Z,11.10
2023-03-28T05:12:35.966Z,10.67
2023-03-28T05:15:03.844Z,9.10
2023-03-28T05:17:31.700Z,11.50
2023-03-28T05:19:59.725Z,12.87
2023-03-28T05:22:27.551Z,13.03
2023-03-28T05:24:55.376Z,15.00
2023-03-28T05:27:24.488Z,14.97
2023-03-28T05:29:52.623Z,13.83
2023-03-28T05:32:20.401Z,10.80
2023-03-28T05:34:48.286Z,9.70
2023-03-28T05:37:16.715Z,9.43
2023-03-28T05:39:44.504Z,11.07
2023-03-28T05:42:12.307Z,10.83
2023-03-28T05:44:41.507Z,9.93
2023-03-28T05:47:09.505Z,10.10
2023-03-28T05:49:37.387Z,10.53
2023-03-28T05:52:05.405Z,8.80
2023-03-28T05:54:33.264Z,13.27
2023-03-28T05:57:01.111Z,12.13
2023-03-28T05:59:28.989Z,9.87
2023-03-28T06:01:58.550Z,9.40
2023-03-28T06:04:28.015Z,9.97
2023-03-28T06:06:56.098Z,29.83
2023-03-28T06:09:24.028Z,26.57
2023-03-28T06:11:51.986Z,19.83
2023-03-28T06:14:20.967Z,11.27
2023-03-28T06:16:48.886Z,11.67
2023-03-28T06:19:18.823Z,13.80
2023-03-28T06:21:46.994Z,9.07
2023-03-28T06:24:15.003Z,10.27
2023-03-28T06:26:42.845Z,11.57
2023-03-28T06:29:12.105Z,13.17
2023-03-28T06:31:40.147Z,11.53
2023-03-28T06:34:07.969Z,8.63
2023-03-28T06:36:37.190Z,10.27
2023-03-28T06:39:05.513Z,12.47
2023-03-28T06:41:33.311Z,15.87
2023-03-28T06:44:09.248Z,10.90
2023-03-28T06:46:37.125Z,14.07
2023-03-28T06:49:05.175Z,14.27
2023-03-28T06:51:33.028Z,12.20
2023-03-28T06:54:02.223Z,15.53
2023-03-28T06:56:30.345Z,13.53
2023-03-28T06:58:58.244Z,13.13
2023-03-28T07:01:26.092Z,14.87
2023-03-28T07:03:53.984Z,18.90
2023-03-28T07:06:21.972Z,24.23
2023-03-28T07:08:49.913Z,19.83
2023-03-28T07:11:19.068Z,17.97
2023-03-28T07:13:46.931Z,19.43
2023-03-28T07:16:16.946Z,14.23
2023-03-28T07:18:45.267Z,13.80
2023-03-28T07:21:15.412Z,14.20
2023-03-28T07:23:44.594Z,11.03
2023-03-28T07:26:14.306Z,9.90
2023-03-28T07:28:43.706Z,14.63
2023-03-28T07:31:12.335Z,7.63
2023-03-28T07:33:40.822Z,17.43
2023-03-28T07:36:11.068Z,14.73
2023-03-28T07:38:38.950Z,19.00
2023-03-28T07:41:08.041Z,17.40
2023-03-28T07:43:37.462Z,11.40
2023-03-28T07:46:08.879Z,9.53
2023-03-28T07:48:37.617Z,7.93
2023-03-28T07:51:07.671Z,9.40
2023-03-28T07:53:36.030Z,8.43
2023-03-28T07:56:03.963Z,6.30
2023-03-28T07:58:31.979Z,5.87
2023-03-28T08:01:06.790Z,4.00
2023-03-28T08:03:34.880Z,8.10
2023-03-28T08:06:04.068Z,5.87
2023-03-28T08:08:32.511Z,6.03
2023-03-28T08:11:00.958Z,4.97
2023-03-28T08:13:28.965Z,7.37
2023-03-28T08:15:57.222Z,8.50
2023-03-28T08:18:26.537Z,5.50
2023-03-28T08:21:01.170Z,4.97
2023-03-28T08:23:29.416Z,4.50
2023-03-28T08:26:06.180Z,5.87
2023-03-28T08:28:35.096Z,5.67
2023-03-28T08:31:03.687Z,4.63
2023-03-28T08:33:33.128Z,5.13
2023-03-28T08:36:00.959Z,7.07
2023-03-28T08:38:29.159Z,4.53
2023-03-28T08:41:05.564Z,4.57
2023-03-28T08:44:03.653Z,3.83
2023-03-28T08:46:32.889Z,4.87
2023-03-28T08:49:07.431Z,7.13
2023-03-28T08:51:38.909Z,5.33
2023-03-28T08:54:14.898Z,7.03
2023-03-28T08:56:46.606Z,5.13
2023-03-28T08:59:16.910Z,5.67
2023-03-28T09:01:46.329Z,4.53
2023-03-28T09:04:25.782Z,5.70
2023-03-28T09:06:58.385Z,4.77
2023-03-28T09:09:43.277Z,4.23
2023-03-28T09:12:27.387Z,5.97
2023-03-28T09:15:29.365Z,3.13
2023-03-28T09:18:15.046Z,6.87
2023-03-28T09:20:50.044Z,8.97
2023-03-28T09:23:44.862Z,7.47
2023-03-28T09:26:17.089Z,3.97
2023-03-28T09:28:51.224Z,3.63
2023-03-28T09:31:20.876Z,4.97
2023-03-28T09:33:50.403Z,2.77
2023-03-28T09:36:24.771Z,5.63
2023-03-28T09:38:59.993Z,6.07
2023-03-28T09:41:42.670Z,3.53
2023-03-28T09:44:14.711Z,2.93
2023-03-28T09:46:45.030Z,5.23
2023-03-28T09:49:17.705Z,7.20
2023-03-28T09:51:47.297Z,6.20
2023-03-28T09:54:15.589Z,5.43
2023-03-28T09:56:45.552Z,2.77
2023-03-28T09:59:28.173Z,3.87
2023-03-28T10:01:57.320Z,2.30
2023-03-28T10:04:34.406Z,2.10
2023-03-28T10:07:29.396Z,4.17
2023-03-28T10:10:01.116Z,3.40
2023-03-28T10:12:34.345Z,4.57
2023-03-28T10:15:02.724Z,3.53
2023-03-28T10:17:33.595Z,3.63
2023-03-28T10:20:06.359Z,3.13
2023-03-28T10:22:38.651Z,1.70
2023-03-28T10:25:09.216Z,2.43
2023-03-28T10:27:38.300Z,2.57
2023-03-28T10:30:18.358Z,2.93
2023-03-28T10:32:46.437Z,1.93
2023-03-28T10:35:25.071Z,2.40
2023-03-28T10:37:56.976Z,4.17
2023-03-28T10:40:29.979Z,3.30
2023-03-28T10:42:59.178Z,3.77
2023-03-28T10:45:34.644Z,2.83
2023-03-28T10:48:08.197Z,43.97
2023-03-28T10:50:38.925Z,38.07
2023-03-28T10:53:32.769Z,5.20
2023-03-28T10:56:14.828Z,3.73
2023-03-28T10:58:50.555Z,12.93
2023-03-28T11:01:20.985Z,3.30
2023-03-28T11:04:12.013Z,8.63
2023-03-28T11:06:45.694Z,24.13
2023-03-28T11:09:20.434Z,4.63
2023-03-28T11:11:59.364Z,4.50
2023-03-28T11:14:36.571Z,4.13
2023-03-28T11:17:11.363Z,4.50
2023-03-28T11:19:54.386Z,2.73
2023-03-28T11:22:28.070Z,2.93
2023-03-28T11:25:06.846Z,2.50
2023-03-28T11:27:41.841Z,3.67
2023-03-28T11:30:14.671Z,4.53
2023-03-28T11:32:48.526Z,4.00
2023-03-28T11:35:22.168Z,3.50
2023-03-28T11:38:00.376Z,2.60
2023-03-28T11:40:36.427Z,4.10
2023-03-28T11:43:06.503Z,5.77
2023-03-28T11:45:50.011Z,3.27
2023-03-28T11:48:25.445Z,3.77
2023-03-28T11:51:02.022Z,1.73
2023-03-28T11:53:33.152Z,1.90
2023-03-28T11:56:10.678Z,3.77
2023-03-28T11:58:41.897Z,2.73
2023-03-28T12:01:14.988Z,3.00
2023-03-28T12:03:59.493Z,3.30
2023-03-28T12:06:34.632Z,2.77
2023-03-28T12:09:11.346Z,3.53
2023-03-28T12:11:43.290Z,2.60
2023-03-28T12:14:34.799Z,5.70
2023-03-28T12:17:08.547Z,3.20
2023-03-28T12:19:40.993Z,5.53
2023-03-28T12:22:14.459Z,9.13
2023-03-28T12:24:48.911Z,3.33
2023-03-28T12:27:26.639Z,4.67
2023-03-28T12:30:00.337Z,2.17
2023-03-28T12:32:38.299Z,3.63
2023-03-28T12:35:15.592Z,2.90
2023-03-28T12:37:55.020Z,3.50
2023-03-28T12:40:30.449Z,2.37
2023-03-28T12:43:00.678Z,3.23
2023-03-28T12:45:31.519Z,3.60
2023-03-28T12:48:06.380Z,4.13
2023-03-28T12:50:49.212Z,2.60
2023-03-28T12:53:18.124Z,3.90
2023-03-28T12:55:48.109Z,4.43
2023-03-28T12:58:26.908Z,2.43
2023-03-28T13:01:16.961Z,2.70
2023-03-28T13:03:53.740Z,2.80
2023-03-28T13:06:29.245Z,2.83
2023-03-28T13:09:18.045Z,3.70
2023-03-28T13:11:53.856Z,2.70
2023-03-28T13:14:38.494Z,2.50
2023-03-28T13:17:19.839Z,2.77
2023-03-28T13:19:52.655Z,2.90
2023-03-28T13:22:32.766Z,2.53
2023-03-28T13:25:26.063Z,2.63
2023-03-28T13:27:56.098Z,2.97
2023-03-28T13:30:28.694Z,1.77
2023-03-28T13:32:58.781Z,5.30
2023-03-28T13:35:45.962Z,3.80
2023-03-28T13:38:36.445Z,3.63
2023-03-28T13:41:06.904Z,2.40
2023-03-28T13:43:43.514Z,2.27
2023-03-28T13:46:16.328Z,2.60
2023-03-28T13:48:50.828Z,2.57
2023-03-28T13:51:22.672Z,3.30
2023-03-28T13:53:50.679Z,2.73
2023-03-28T13:56:23.616Z,2.73
2023-03-28T13:58:53.015Z,3.60
2023-03-28T14:01:25.364Z,2.90
2023-03-28T14:03:54.610Z,3.07
2023-03-28T14:06:24.846Z,3.80
2023-03-28T14:08:54.123Z,1.93
2023-03-28T14:11:24.864Z,6.80
2023-03-28T14:14:00.415Z,13.07
2023-03-28T14:16:29.792Z,16.83
2023-03-28T14:18:57.927Z,6.33
2023-03-28T14:21:26.576Z,5.07
2023-03-28T14:23:59.473Z,4.17
2023-03-28T14:26:30.185Z,4.43
2023-03-28T14:29:03.919Z,3.23
2023-03-28T14:31:36.969Z,3.07
2023-03-28T14:34:17.098Z,3.43
2023-03-28T14:36:58.623Z,3.30
2023-03-28T14:39:27.677Z,3.73
2023-03-28T14:41:56.848Z,3.07
2023-03-28T14:44:25.013Z,3.87
2023-03-28T14:46:57.182Z,2.83
2023-03-28T14:49:26.380Z,3.53
2023-03-28T14:51:56.286Z,3.03
2023-03-28T14:54:28.269Z,4.57
2023-03-28T14:56:58.195Z,3.90
2023-03-28T14:59:34.637Z,4.60
2023-03-28T15:02:05.961Z,3.23
2023-03-28T15:04:34.815Z,2.97
2023-03-28T15:07:02.770Z,4.13
2023-03-28T15:09:34.054Z,4.60
2023-03-28T15:12:06.711Z,2.77
2023-03-28T15:14:39.824Z,4.47
2023-03-28T15:17:17.073Z,3.30
2023-03-28T15:19:46.743Z,3.73
2023-03-28T15:22:18.498Z,3.33
2023-03-28T15:24:46.843Z,3.27
2023-03-28T15:27:24.357Z,3.00
2023-03-28T15:29:52.617Z,3.23
2023-03-28T15:32:22.180Z,3.57
2023-03-28T15:34:57.347Z,4.03
2023-03-28T15:37:28.019Z,2.67
2023-03-28T15:40:12.202Z,2.67
2023-03-28T15:42:40.690Z,3.50
2023-03-28T15:45:40.911Z,4.20
2023-03-28T15:48:17.543Z,3.77
2023-03-28T15:50:50.460Z,2.17
2023-03-28T15:53:18.930Z,5.83
2023-03-28T15:55:49.389Z,4.20
2023-03-28T15:58:19.945Z,2.30
2023-03-28T16:00:49.980Z,3.50
2023-03-28T16:03:35.354Z,5.03
2023-03-28T16:06:23.156Z,2.90
2023-03-28T16:08:57.044Z,1.97
2023-03-28T16:11:28.170Z,3.60
2023-03-28T16:13:56.030Z,4.03
2023-03-28T16:16:27.247Z,4.53
2023-03-28T16:18:56.863Z,3.77
2023-03-28T16:21:24.701Z,6.43
2023-03-28T16:23:52.534Z,5.30
2023-03-28T16:26:20.382Z,7.63
2023-03-28T16:28:48.194Z,4.97
2023-03-28T16:31:16.447Z,2.60
2023-03-28T16:33:44.496Z,4.93
2023-03-28T16:36:14.111Z,6.07
2023-03-28T16:38:41.977Z,6.60
2023-03-28T16:41:10.379Z,4.30
2023-03-28T16:43:38.698Z,2.47
2023-03-28T16:46:06.833Z,4.10
2023-03-28T16:48:36.261Z,7.63
2023-03-28T16:51:05.603Z,6.60
2023-03-28T16:53:35.258Z,5.90
2023-03-28T16:56:03.929Z,6.07
2023-03-28T16:58:32.120Z,7.20
2023-03-28T17:01:05.501Z,4.90
2023-03-28T17:03:33.585Z,4.30
2023-03-28T17:06:05.876Z,3.00
2023-03-28T17:08:35.395Z,3.63
2023-03-28T17:11:04.944Z,3.20
2023-03-28T17:13:33.364Z,5.50
2023-03-28T17:16:02.057Z,3.80
2023-03-28T17:18:31.708Z,5.03
2023-03-28T17:21:01.908Z,3.93
2023-03-28T17:23:30.525Z,3.07
2023-03-28T17:26:00.118Z,2.40
2023-03-28T17:28:29.398Z,3.33
2023-03-28T17:30:57.433Z,6.57
2023-03-28T17:33:25.674Z,2.77
2023-03-28T17:35:53.517Z,2.93
2023-03-28T17:38:21.610Z,2.90
2023-03-28T17:40:50.072Z,2.17
2023-03-28T17:43:19.251Z,4.03
2023-03-28T17:45:47.098Z,3.10
2023-03-28T17:48:14.910Z,2.67
2023-03-28T17:50:43.346Z,4.07
2023-03-28T17:53:11.548Z,2.63
2023-03-28T17:55:39.338Z,2.37
2023-03-28T17:58:07.385Z,4.13
2023-03-28T18:00:36.563Z,4.23
2023-03-28T18:03:04.531Z,4.67
2023-03-28T18:05:32.495Z,3.87
2023-03-28T18:08:00.299Z,2.30
2023-03-28T18:10:28.109Z,3.37
2023-03-28T18:12:56.086Z,3.30
2023-03-28T18:15:24.046Z,2.20
2023-03-28T18:17:53.220Z,3.53
2023-03-28T18:20:22.974Z,5.10
2023-03-28T18:22:52.342Z,5.33
2023-03-28T18:25:20.476Z,3.37
2023-03-28T18:27:48.274Z,4.03
2023-03-28T18:30:16.174Z,5.63
2023-03-28T18:32:44.045Z,6.70
2023-03-28T18:35:13.250Z,4.17
2023-03-28T18:37:41.396Z,2.80
2023-03-28T18:40:11.085Z,3.80
2023-03-28T18:42:38.912Z,4.07
2023-03-28T18:45:07.639Z,3.97
2023-03-28T18:47:38.283Z,4.27
2023-03-28T18:50:07.064Z,5.27
2023-03-28T18:52:37.370Z,3.23
2023-03-28T18:55:06.099Z,4.40
2023-03-28T18:57:34.686Z,4.80
2023-03-28T19:00:07.675Z,3.97
2023-03-28T19:02:35.662Z,5.07
2023-03-28T19:05:03.678Z,2.63
2023-03-28T19:07:31.520Z,5.17
2023-03-28T19:10:00.836Z,2.77
2023-03-28T19:12:28.681Z,3.47
2023-03-28T19:14:56.480Z,6.03
2023-03-28T19:17:24.384Z,3.57
2023-03-28T19:19:52.244Z,6.87
2023-03-28T19:22:20.045Z,6.57
2023-03-28T19:24:47.864Z,3.67
2023-03-28T19:27:17.363Z,4.17
2023-03-28T19:29:45.262Z,4.87
2023-03-28T19:32:13.066Z,6.60
2023-03-28T19:34:40.955Z,8.07
2023-03-28T19:37:08.994Z,7.23
2023-03-28T19:39:36.795Z,6.57
2023-03-28T19:42:04.781Z,8.90
2023-03-28T19:44:34.067Z,5.47
2023-03-28T19:47:01.940Z,6.40
2023-03-28T19:49:29.810Z,4.70
2023-03-28T19:51:59.377Z,5.60
2023-03-28T19:54:27.655Z,3.77
2023-03-28T19:56:55.561Z,6.90
2023-03-28T19:59:23.556Z,4.23
2023-03-28T20:01:52.768Z,4.73
2023-03-28T20:04:21.324Z,8.17
2023-03-28T20:06:49.674Z,6.07
2023-03-28T20:09:17.482Z,4.47
2023-03-28T20:11:45.278Z,4.87
2023-03-28T20:14:17.133Z,5.27
2023-03-28T20:16:44.985Z,5.63
2023-03-28T20:19:14.177Z,4.37
2023-03-28T20:21:41.999Z,4.83
2023-03-28T20:24:10.881Z,4.30
2023-03-28T20:26:39.745Z,5.13
2023-03-28T20:29:10.249Z,5.57
2023-03-28T20:31:38.197Z,9.77
2023-03-28T20:34:06.674Z,4.57
2023-03-28T20:36:36.277Z,3.93
2023-03-28T20:39:04.474Z,6.37
2023-03-28T20:41:32.340Z,4.60
2023-03-28T20:44:05.066Z,5.80
2023-03-28T20:46:34.604Z,4.17
2023-03-28T20:49:06.086Z,5.40
2023-03-28T20:51:39.336Z,4.27
2023-03-28T20:54:07.395Z,5.17
2023-03-28T20:56:35.464Z,4.57
2023-03-28T20:59:04.381Z,6.57
2023-03-28T21:01:33.098Z,3.73
2023-03-28T21:04:02.224Z,3.00
2023-03-28T21:06:33.490Z,5.00
2023-03-28T21:09:04.809Z,4.70
2023-03-28T21:11:33.928Z,4.83
2023-03-28T21:14:02.619Z,4.00
2023-03-28T21:16:31.736Z,4.47
2023-03-28T21:19:00.216Z,4.17
2023-03-28T21:21:29.771Z,3.80
2023-03-28T21:23:58.235Z,3.37
2023-03-28T21:26:29.000Z,4.40
2023-03-28T21:28:56.926Z,4.23
2023-03-28T21:31:26.227Z,3.93
2023-03-28T21:33:56.742Z,4.10
2023-03-28T21:36:25.248Z,4.00
2023-03-28T21:38:53.189Z,3.83
2023-03-28T21:41:22.431Z,4.63
2023-03-28T21:43:53.625Z,4.33
2023-03-28T21:46:21.670Z,4.53
2023-03-28T21:48:49.881Z,5.10
2023-03-28T21:51:18.047Z,4.70
2023-03-28T21:53:46.475Z,4.13
2023-03-28T21:56:16.312Z,3.37
2023-03-28T21:58:44.321Z,4.43
2023-03-28T22:01:17.400Z,4.20
2023-03-28T22:03:46.546Z,3.33
2023-03-28T22:06:14.806Z,2.40
2023-03-28T22:08:43.262Z,1.60
2023-03-28T22:11:14.522Z,1.50
2023-03-28T22:13:44.757Z,3.50
2023-03-28T22:16:15.550Z,2.20
2023-03-28T22:18:49.452Z,4.53
2023-03-28T22:21:17.347Z,4.40
2023-03-28T22:23:47.098Z,3.27
2023-03-28T22:26:15.751Z,5.10
2023-03-28T22:28:43.628Z,1.73
2023-03-28T22:31:11.642Z,4.90
2023-03-28T22:33:40.835Z,3.23
2023-03-28T22:36:10.038Z,3.50
2023-03-28T22:38:37.919Z,5.07
2023-03-28T22:41:06.256Z,3.37
2023-03-28T22:43:34.193Z,3.50
2023-03-28T22:46:02.257Z,3.50
2023-03-28T22:48:31.336Z,3.63
2023-03-28T22:51:01.683Z,2.80
2023-03-28T22:53:29.765Z,2.83
2023-03-28T22:55:57.754Z,4.40
2023-03-28T22:58:26.245Z,1.70
2023-03-28T23:00:54.948Z,3.80
2023-03-28T23:03:23.203Z,1.93
2023-03-28T23:05:51.874Z,3.77
2023-03-28T23:08:21.216Z,4.50
2023-03-28T23:10:49.126Z,4.57
2023-03-28T23:13:17.075Z,5.20
2023-03-28T23:15:44.942Z,4.83
2023-03-28T23:18:14.522Z,3.10
2023-03-28T23:20:42.847Z,3.07
2023-03-28T23:23:12.668Z,3.40
2023-03-28T23:25:42.090Z,2.30
2023-03-28T23:28:09.899Z,3.50
2023-03-28T23:30:39.422Z,2.90
2023-03-28T23:33:07.422Z,2.77
2023-03-28T23:35:35.430Z,4.17
2023-03-28T23:38:03.260Z,3.03
2023-03-28T23:40:31.056Z,3.73
2023-03-28T23:43:00.217Z,2.70
2023-03-28T23:45:28.083Z,1.67
2023-03-28T23:47:55.942Z,1.93
2023-03-28T23:50:23.799Z,2.30
2023-03-28T23:52:51.609Z,4.47
2023-03-28T23:55:19.430Z,1.63
2023-03-28T23:57:47.409Z,2.47
